createdAt,value
2019-05-06T00:00:38.252Z,5.23
2019-05-06T00:01:38.231Z,5.23
2019-05-06T00:02:38.218Z,5.28
2019-05-06T00:03:38.218Z,5.29
2019-05-06T00:04:38.175Z,5.34
2019-05-06T00:05:38.155Z,5.37
2019-05-06T00:06:38.133Z,5.43
2019-05-06T00:07:38.123Z,5.47
2019-05-06T00:08:38.231Z,5.49
2019-05-06T00:09:38.077Z,5.54
2019-05-06T00:10:38.068Z,5.52
2019-05-06T00:11:38.044Z,5.51
2019-05-06T00:12:38.027Z,5.47
2019-05-06T00:13:38.009Z,5.47
2019-05-06T00:14:38.016Z,5.46
2019-05-06T00:15:37.974Z,5.38
2019-05-06T00:16:37.953Z,5.29
2019-05-06T00:17:37.929Z,5.25
2019-05-06T00:18:37.941Z,5.18
2019-05-06T00:19:37.918Z,5.15
2019-05-06T00:20:37.879Z,5.16
2019-05-06T00:21:37.857Z,5.12
2019-05-06T00:22:37.841Z,5.15
2019-05-06T00:23:38.257Z,5.20
2019-05-06T00:24:37.931Z,5.28
2019-05-06T00:25:37.782Z,5.33
2019-05-06T00:26:37.760Z,5.37
2019-05-06T00:27:37.749Z,5.40
2019-05-06T00:28:37.724Z,5.38
2019-05-06T00:29:37.709Z,5.33
2019-05-06T00:30:37.712Z,5.28
2019-05-06T00:31:37.672Z,5.25
2019-05-06T00:32:37.651Z,5.25
2019-05-06T00:33:37.637Z,5.26
2019-05-06T00:34:37.648Z,5.26
2019-05-06T00:35:37.585Z,5.31
2019-05-06T00:36:37.572Z,5.29
2019-05-06T00:37:37.564Z,5.23
2019-05-06T00:38:37.533Z,5.22
2019-05-06T00:39:37.547Z,5.25
2019-05-06T00:40:37.500Z,5.22
2019-05-06T00:41:37.533Z,5.23
2019-05-06T00:42:37.458Z,5.22
2019-05-06T00:43:37.445Z,5.23
2019-05-06T00:44:37.423Z,5.26
2019-05-06T00:45:37.398Z,5.22
2019-05-06T00:46:37.396Z,5.28
2019-05-06T00:47:37.450Z,5.28
2019-05-06T00:48:37.350Z,5.28
2019-05-06T00:49:37.333Z,5.26
2019-05-06T00:50:37.333Z,5.25
2019-05-06T00:51:37.292Z,5.26
2019-05-06T00:52:37.275Z,5.28
2019-05-06T00:53:37.283Z,5.31
2019-05-06T00:54:37.232Z,5.34
2019-05-06T00:55:37.219Z,5.33
2019-05-06T00:56:37.194Z,5.31
2019-05-06T00:57:37.203Z,5.25
2019-05-06T00:58:37.157Z,5.20
2019-05-06T00:59:37.173Z,5.22
2019-05-06T01:00:37.123Z,5.22
2019-05-06T01:01:37.101Z,5.26
2019-05-06T01:02:37.113Z,5.28
2019-05-06T01:03:37.060Z,5.33
2019-05-06T01:04:37.047Z,5.37
2019-05-06T01:05:37.031Z,5.40
2019-05-06T01:06:37.007Z,5.41
2019-05-06T01:07:37.021Z,5.41
2019-05-06T01:08:36.977Z,5.37
2019-05-06T01:09:36.956Z,5.36
2019-05-06T01:10:36.939Z,5.38
2019-05-06T01:11:36.916Z,5.37
2019-05-06T01:12:36.894Z,5.33
2019-05-06T01:13:36.889Z,5.31
2019-05-06T01:14:36.865Z,5.33
2019-05-06T01:15:36.843Z,5.33
2019-05-06T01:16:36.822Z,5.31
2019-05-06T01:17:36.797Z,5.38
2019-05-06T01:18:36.786Z,5.40
2019-05-06T01:19:36.766Z,5.43
2019-05-06T01:20:36.742Z,5.41
2019-05-06T01:21:36.728Z,5.43
2019-05-06T01:22:36.710Z,5.46
2019-05-06T01:23:36.717Z,5.46
2019-05-06T01:24:36.666Z,5.44
2019-05-06T01:25:36.650Z,5.43
2019-05-06T01:26:36.628Z,5.46
2019-05-06T01:27:36.618Z,5.43
2019-05-06T01:28:36.638Z,5.43
2019-05-06T01:29:36.578Z,5.43
2019-05-06T01:30:36.560Z,5.43
2019-05-06T01:31:42.770Z,5.43
2019-05-06T01:32:36.523Z,5.41
2019-05-06T01:33:36.498Z,5.41
2019-05-06T01:34:36.485Z,5.41
2019-05-06T01:35:36.459Z,5.41
2019-05-06T01:36:36.439Z,5.40
2019-05-06T01:37:36.427Z,5.38
2019-05-06T01:38:36.429Z,5.34
2019-05-06T01:39:36.391Z,5.34
2019-05-06T01:40:36.368Z,5.33
2019-05-06T01:41:36.355Z,5.31
2019-05-06T01:42:36.339Z,5.26
2019-05-06T01:43:36.327Z,5.31
2019-05-06T01:44:36.297Z,5.33
2019-05-06T01:45:36.270Z,5.36
2019-05-06T01:46:36.274Z,5.37
2019-05-06T01:47:36.239Z,5.38
2019-05-06T01:48:36.214Z,5.40
2019-05-06T01:49:36.201Z,5.44
2019-05-06T01:50:36.178Z,5.41
2019-05-06T01:51:36.166Z,5.43
2019-05-06T01:52:36.144Z,5.43
2019-05-06T01:53:36.127Z,5.40
2019-05-06T01:54:36.107Z,5.34
2019-05-06T01:55:36.084Z,5.36
2019-05-06T01:56:36.063Z,5.36
2019-05-06T01:57:36.053Z,5.33
2019-05-06T01:58:36.034Z,5.36
2019-05-06T01:59:36.153Z,5.37
2019-05-06T02:00:35.989Z,5.38
2019-05-06T02:01:35.966Z,5.36
2019-05-06T02:02:35.950Z,5.33
2019-05-06T02:03:35.936Z,5.22
2019-05-06T02:04:35.913Z,5.12
2019-05-06T02:05:36.027Z,5.00
2019-05-06T02:06:35.872Z,4.90
2019-05-06T02:07:35.862Z,4.84
2019-05-06T02:08:35.844Z,4.82
2019-05-06T02:09:35.820Z,4.75
2019-05-06T02:10:38.163Z,4.78
2019-05-06T02:11:35.807Z,4.84
2019-05-06T02:12:35.766Z,4.86
2019-05-06T02:13:35.745Z,4.92
2019-05-06T02:14:35.738Z,4.98
2019-05-06T02:15:35.717Z,5.00
2019-05-06T02:16:35.710Z,5.05
2019-05-06T02:17:35.666Z,5.08
2019-05-06T02:18:35.656Z,5.08
2019-05-06T02:19:35.629Z,5.15
2019-05-06T02:20:35.613Z,5.18
2019-05-06T02:21:35.621Z,5.23
2019-05-06T02:22:35.606Z,5.25
2019-05-06T02:23:35.556Z,5.25
2019-05-06T02:24:35.533Z,5.28
2019-05-06T02:25:35.511Z,5.33
2019-05-06T02:26:35.561Z,5.37
2019-05-06T02:27:35.479Z,5.37
2019-05-06T02:28:35.465Z,5.41
2019-05-06T02:29:35.437Z,5.43
2019-05-06T02:30:36.577Z,5.44
2019-05-06T02:31:35.569Z,5.47
2019-05-06T02:32:36.134Z,5.51
2019-05-06T02:33:35.758Z,5.54
2019-05-06T02:34:36.416Z,5.56
2019-05-06T02:35:35.328Z,5.59
2019-05-06T02:36:35.327Z,5.62
2019-05-06T02:37:35.409Z,5.64
2019-05-06T02:38:45.943Z,5.65
2019-05-06T02:39:35.269Z,5.67
2019-05-06T02:40:35.248Z,5.70
2019-05-06T02:41:35.212Z,5.72
2019-05-06T02:42:35.334Z,5.73
2019-05-06T02:43:35.184Z,5.74
2019-05-06T02:44:35.156Z,5.77
2019-05-06T02:45:35.137Z,5.79
2019-05-06T02:46:35.127Z,5.79
2019-05-06T02:47:35.103Z,5.77
2019-05-06T02:48:35.093Z,5.74
2019-05-06T02:49:35.062Z,5.74
2019-05-06T02:50:35.071Z,5.76
2019-05-06T02:51:35.026Z,5.72
2019-05-06T02:52:35.020Z,5.72
2019-05-06T02:53:34.998Z,5.72
2019-05-06T02:54:34.979Z,5.73
2019-05-06T02:55:36.299Z,5.72
2019-05-06T02:56:34.940Z,5.67
2019-05-06T02:57:34.915Z,5.65
2019-05-06T02:58:34.931Z,5.62
2019-05-06T02:59:34.877Z,5.55
2019-05-06T03:00:34.882Z,5.44
2019-05-06T03:01:34.838Z,5.40
2019-05-06T03:02:43.046Z,5.37
2019-05-06T03:03:34.808Z,5.36
2019-05-06T03:04:34.834Z,5.33
2019-05-06T03:05:34.770Z,5.23
2019-05-06T03:06:34.753Z,5.18
2019-05-06T03:07:37.652Z,5.16
2019-05-06T03:08:34.720Z,5.16
2019-05-06T03:09:34.698Z,5.13
2019-05-06T03:10:34.704Z,5.18
2019-05-06T03:11:34.650Z,5.23
2019-05-06T03:12:34.640Z,5.22
2019-05-06T03:13:34.621Z,5.25
2019-05-06T03:14:34.971Z,5.28
2019-05-06T03:15:34.638Z,5.28
2019-05-06T03:16:34.557Z,5.34
2019-05-06T03:17:34.534Z,5.36
2019-05-06T03:18:34.520Z,5.37
2019-05-06T03:19:34.520Z,5.33
2019-05-06T03:20:35.889Z,5.29
2019-05-06T03:21:37.122Z,5.34
2019-05-06T03:22:34.797Z,5.34
2019-05-06T03:23:35.222Z,5.36
2019-05-06T03:24:34.409Z,5.37
2019-05-06T03:25:34.403Z,5.34
2019-05-06T03:26:34.392Z,5.33
2019-05-06T03:27:34.349Z,5.28
2019-05-06T03:28:34.331Z,5.28
2019-05-06T03:29:34.319Z,5.31
2019-05-06T03:30:36.141Z,5.29
2019-05-06T03:31:36.435Z,5.22
2019-05-06T03:32:41.624Z,5.22
2019-05-06T03:33:50.304Z,5.23
2019-05-06T03:34:58.659Z,5.25
2019-05-06T03:35:50.427Z,5.22
2019-05-06T03:36:40.406Z,5.18
2019-05-06T03:37:34.192Z,5.16
2019-05-06T03:38:34.169Z,5.15
2019-05-06T03:39:34.116Z,5.18
2019-05-06T03:40:37.137Z,5.15
2019-05-06T03:41:34.110Z,5.13
2019-05-06T03:42:34.061Z,5.13
2019-05-06T03:43:34.189Z,5.13
2019-05-06T03:44:34.032Z,5.15
2019-05-06T03:45:34.004Z,5.19
2019-05-06T03:46:33.996Z,5.19
2019-05-06T03:47:34.717Z,5.22
2019-05-06T03:48:33.950Z,5.19
2019-05-06T03:49:34.038Z,5.22
2019-05-06T03:50:33.916Z,5.28
2019-05-06T03:51:34.478Z,5.33
2019-05-06T03:52:34.355Z,5.34
2019-05-06T03:53:33.903Z,5.36
2019-05-06T03:54:34.429Z,5.36
2019-05-06T03:55:34.317Z,5.40
2019-05-06T03:56:34.030Z,5.40
2019-05-06T03:57:36.107Z,5.41
2019-05-06T03:58:34.664Z,5.44
2019-05-06T03:59:33.871Z,5.47
2019-05-06T04:00:33.731Z,5.49
2019-05-06T04:01:33.880Z,5.51
2019-05-06T04:02:33.977Z,5.51
2019-05-06T04:03:44.145Z,5.52
2019-05-06T04:04:33.683Z,5.55
2019-05-06T04:05:33.714Z,5.58
2019-05-06T04:06:33.670Z,5.59
2019-05-06T04:07:34.115Z,5.62
2019-05-06T04:08:34.339Z,5.65
2019-05-06T04:09:36.776Z,5.65
2019-05-06T04:10:36.864Z,5.67
2019-05-06T04:11:36.225Z,5.69
2019-05-06T04:12:33.496Z,5.70
2019-05-06T04:13:33.482Z,5.67
2019-05-06T04:14:33.971Z,5.67
2019-05-06T04:15:34.163Z,5.72
2019-05-06T04:16:33.865Z,5.73
2019-05-06T04:17:33.410Z,5.67
2019-05-06T04:18:33.575Z,5.67
2019-05-06T04:19:33.565Z,5.62
2019-05-06T04:20:34.262Z,5.58
2019-05-06T04:21:33.340Z,5.51
2019-05-06T04:22:33.461Z,5.49
2019-05-06T04:23:33.440Z,5.51
2019-05-06T04:24:33.833Z,5.51
2019-05-06T04:25:33.989Z,5.51
2019-05-06T04:26:33.239Z,5.46
2019-05-06T04:27:33.719Z,5.40
2019-05-06T04:28:34.121Z,5.36
2019-05-06T04:29:35.631Z,5.40
2019-05-06T04:30:33.481Z,5.40
2019-05-06T04:31:33.719Z,5.40
2019-05-06T04:32:34.116Z,5.38
2019-05-06T04:33:33.361Z,5.36
2019-05-06T04:34:33.347Z,5.33
2019-05-06T04:35:33.928Z,5.29
2019-05-06T04:36:33.815Z,5.26
2019-05-06T04:37:33.863Z,5.23
2019-05-06T04:38:33.710Z,5.28
2019-05-06T04:39:33.257Z,5.28
2019-05-06T04:40:33.247Z,5.26
2019-05-06T04:41:34.125Z,5.23
2019-05-06T04:42:34.522Z,5.26
2019-05-06T04:43:33.724Z,5.26
2019-05-06T04:44:33.237Z,5.28
2019-05-06T04:45:33.727Z,5.28
2019-05-06T04:46:34.788Z,5.25
2019-05-06T04:47:32.884Z,5.26
2019-05-06T04:48:33.204Z,5.23
2019-05-06T04:49:33.261Z,5.23
2019-05-06T04:50:33.268Z,5.25
2019-05-06T04:51:36.442Z,5.23
2019-05-06T04:52:34.169Z,5.19
2019-05-06T04:53:33.750Z,5.19
2019-05-06T04:54:33.634Z,5.18
2019-05-06T04:55:33.651Z,5.20
2019-05-06T04:56:33.376Z,5.23
2019-05-06T04:57:33.575Z,5.25
2019-05-06T04:58:33.567Z,5.25
2019-05-06T04:59:32.746Z,5.23
2019-05-06T05:00:33.248Z,5.20
2019-05-06T05:01:34.139Z,5.20
2019-05-06T05:02:33.671Z,5.22
2019-05-06T05:03:33.563Z,5.25
2019-05-06T05:04:36.612Z,5.28
2019-05-06T05:05:33.260Z,5.33
2019-05-06T05:06:32.933Z,5.34
2019-05-06T05:07:33.473Z,5.34
2019-05-06T05:08:33.196Z,5.36
2019-05-06T05:09:32.721Z,5.37
2019-05-06T05:10:32.402Z,5.40
2019-05-06T05:11:33.247Z,5.37
2019-05-06T05:12:33.621Z,5.38
2019-05-06T05:13:32.921Z,5.43
2019-05-06T05:14:32.774Z,5.40
2019-05-06T05:15:32.574Z,5.41
2019-05-06T05:16:33.132Z,5.41
2019-05-06T05:17:33.153Z,5.40
2019-05-06T05:18:32.402Z,5.40
2019-05-06T05:19:32.853Z,5.34
2019-05-06T05:20:37.725Z,5.31
2019-05-06T05:21:32.366Z,5.22
2019-05-06T05:22:32.627Z,5.26
2019-05-06T05:23:32.168Z,5.25
2019-05-06T05:24:32.164Z,5.29
2019-05-06T05:25:32.832Z,5.33
2019-05-06T05:26:32.383Z,5.34
2019-05-06T05:27:32.903Z,5.37
2019-05-06T05:28:32.208Z,5.37
2019-05-06T05:29:32.574Z,5.34
2019-05-06T05:30:32.842Z,5.36
2019-05-06T05:31:33.174Z,5.33
2019-05-06T05:32:32.188Z,5.33
2019-05-06T05:33:32.763Z,5.36
2019-05-06T05:34:39.912Z,5.36
2019-05-06T05:35:32.194Z,5.38
2019-05-06T05:36:32.844Z,5.43
2019-05-06T05:37:32.822Z,5.46
2019-05-06T05:38:32.142Z,5.51
2019-05-06T05:39:33.266Z,5.56
2019-05-06T05:40:32.264Z,5.56
2019-05-06T05:41:33.145Z,5.58
2019-05-06T05:42:32.773Z,5.59
2019-05-06T05:43:32.648Z,5.61
2019-05-06T05:44:32.421Z,5.67
2019-05-06T05:45:32.689Z,5.69
2019-05-06T05:46:33.027Z,5.69
2019-05-06T05:47:33.148Z,5.72
2019-05-06T05:48:32.479Z,5.74
2019-05-06T05:49:32.471Z,5.74
2019-05-06T05:50:32.550Z,5.77
2019-05-06T05:51:32.123Z,5.81
2019-05-06T05:52:32.852Z,5.91
2019-05-06T05:53:32.944Z,5.92
2019-05-06T05:54:33.194Z,5.94
2019-05-06T05:55:33.013Z,5.98
2019-05-06T05:56:32.966Z,6.01
2019-05-06T05:57:32.196Z,6.01
2019-05-06T05:58:32.994Z,6.06
2019-05-06T05:59:32.951Z,6.06
2019-05-06T06:00:32.370Z,6.06
2019-05-06T06:01:32.717Z,6.10
2019-05-06T06:02:33.276Z,6.12
2019-05-06T06:03:32.449Z,6.13
2019-05-06T06:04:32.134Z,6.12
2019-05-06T06:05:32.960Z,6.12
2019-05-06T06:06:33.172Z,6.16
2019-05-06T06:07:32.741Z,6.16
2019-05-06T06:08:32.247Z,6.17
2019-05-06T06:09:32.863Z,6.17
2019-05-06T06:10:33.213Z,6.13
2019-05-06T06:11:32.825Z,6.12
2019-05-06T06:12:32.430Z,6.12
2019-05-06T06:13:32.007Z,6.12
2019-05-06T06:14:33.218Z,6.06
2019-05-06T06:15:32.902Z,6.07
2019-05-06T06:16:32.844Z,6.09
2019-05-06T06:17:32.535Z,6.09
2019-05-06T06:18:33.233Z,6.09
2019-05-06T06:19:32.898Z,6.10
2019-05-06T06:20:32.721Z,6.10
2019-05-06T06:21:32.254Z,6.10
2019-05-06T06:22:32.939Z,6.12
2019-05-06T06:23:32.383Z,6.13
2019-05-06T06:24:32.197Z,6.15
2019-05-06T06:25:33.236Z,6.13
2019-05-06T06:26:32.478Z,6.15
2019-05-06T06:27:33.098Z,6.20
2019-05-06T06:28:33.165Z,6.17
2019-05-06T06:29:32.378Z,6.26
2019-05-06T06:30:33.039Z,6.26
2019-05-06T06:31:30.890Z,6.25
2019-05-06T06:32:32.595Z,6.25
2019-05-06T06:33:32.932Z,6.20
2019-05-06T06:34:32.891Z,6.19
2019-05-06T06:35:32.400Z,6.16
2019-05-06T06:36:32.596Z,6.16
2019-05-06T06:37:33.049Z,6.19
2019-05-06T06:38:32.331Z,6.20
2019-05-06T06:39:32.701Z,6.17
2019-05-06T06:40:32.878Z,6.13
2019-05-06T06:41:32.308Z,6.15
2019-05-06T06:42:30.693Z,6.13
2019-05-06T06:43:32.419Z,6.13
2019-05-06T06:44:32.950Z,6.10
2019-05-06T06:45:32.512Z,6.09
2019-05-06T06:46:32.356Z,6.09
2019-05-06T06:47:32.043Z,6.10
2019-05-06T06:48:32.022Z,6.09
2019-05-06T06:49:32.752Z,6.12
2019-05-06T06:50:30.549Z,6.12
2019-05-06T06:51:32.898Z,6.10
2019-05-06T06:52:32.535Z,6.13
2019-05-06T06:53:32.597Z,6.15
2019-05-06T06:54:32.308Z,6.16
2019-05-06T06:55:31.867Z,6.17
2019-05-06T06:56:32.825Z,6.13
2019-05-06T06:57:32.224Z,6.09
2019-05-06T06:58:32.187Z,6.09
2019-05-06T06:59:31.861Z,6.07
2019-05-06T07:00:33.135Z,6.10
2019-05-06T07:01:33.027Z,6.13
2019-05-06T07:02:32.672Z,6.15
2019-05-06T07:03:32.600Z,6.16
2019-05-06T07:04:32.425Z,6.22
2019-05-06T07:05:33.045Z,6.25
2019-05-06T07:06:30.479Z,6.26
2019-05-06T07:07:41.388Z,6.29
2019-05-06T07:08:34.824Z,6.29
2019-05-06T07:09:32.249Z,6.31
2019-05-06T07:10:32.257Z,6.34
2019-05-06T07:11:30.157Z,6.38
2019-05-06T07:12:30.169Z,6.36
2019-05-06T07:13:32.570Z,6.35
2019-05-06T07:14:32.302Z,6.41
2019-05-06T07:15:30.082Z,6.44
2019-05-06T07:16:32.642Z,6.47
2019-05-06T07:17:32.645Z,6.49
2019-05-06T07:18:30.085Z,6.50
2019-05-06T07:19:30.016Z,6.50
2019-05-06T07:20:32.365Z,6.52
2019-05-06T07:21:30.373Z,6.52
2019-05-06T07:22:29.961Z,6.54
2019-05-06T07:23:32.519Z,6.57
2019-05-06T07:24:32.317Z,6.59
2019-05-06T07:25:29.901Z,6.57
2019-05-06T07:26:31.700Z,6.62
2019-05-06T07:27:29.871Z,6.64
2019-05-06T07:28:32.448Z,6.67
2019-05-06T07:29:29.845Z,6.71
2019-05-06T07:30:29.816Z,6.75
2019-05-06T07:31:29.822Z,6.83
2019-05-06T07:32:29.779Z,6.85
2019-05-06T07:33:29.780Z,6.85
2019-05-06T07:34:29.744Z,6.82
2019-05-06T07:35:38.420Z,6.80
2019-05-06T07:36:29.699Z,6.82
2019-05-06T07:37:29.686Z,6.83
2019-05-06T07:38:29.657Z,6.87
2019-05-06T07:39:29.670Z,6.89
2019-05-06T07:40:29.636Z,6.93
2019-05-06T07:41:29.611Z,7.00
2019-05-06T07:42:29.596Z,7.04
2019-05-06T07:43:29.587Z,7.10
2019-05-06T07:44:29.577Z,7.14
2019-05-06T07:45:30.107Z,7.18
2019-05-06T07:46:30.141Z,7.23
2019-05-06T07:47:29.508Z,7.28
2019-05-06T07:48:31.874Z,7.32
2019-05-06T07:49:29.458Z,7.36
2019-05-06T07:50:29.638Z,7.41
2019-05-06T07:51:29.431Z,7.40
2019-05-06T07:52:29.409Z,7.46
2019-05-06T07:53:32.001Z,7.51
2019-05-06T07:54:29.433Z,7.56
2019-05-06T07:55:29.381Z,7.59
2019-05-06T07:56:29.373Z,7.56
2019-05-06T07:57:29.328Z,7.59
2019-05-06T07:58:29.303Z,7.62
2019-05-06T07:59:29.289Z,7.64
2019-05-06T08:00:29.306Z,7.64
2019-05-06T08:01:29.248Z,7.62
2019-05-06T08:02:29.257Z,7.62
2019-05-06T08:03:29.213Z,7.59
2019-05-06T08:04:29.224Z,7.62
2019-05-06T08:05:29.316Z,7.61
2019-05-06T08:06:29.163Z,7.64
2019-05-06T08:07:29.138Z,7.62
2019-05-06T08:08:29.123Z,7.62
2019-05-06T08:09:29.106Z,7.66
2019-05-06T08:10:29.099Z,7.66
2019-05-06T08:11:29.077Z,7.69
2019-05-06T08:12:29.068Z,7.74
2019-05-06T08:13:29.077Z,7.74
2019-05-06T08:14:29.020Z,7.78
2019-05-06T08:15:29.012Z,7.80
2019-05-06T08:16:29.022Z,7.83
2019-05-06T08:17:29.004Z,7.87
2019-05-06T08:18:28.964Z,7.91
2019-05-06T08:19:28.934Z,7.95
2019-05-06T08:20:28.914Z,7.95
2019-05-06T08:21:28.926Z,7.98
2019-05-06T08:22:28.878Z,7.93
2019-05-06T08:23:28.862Z,7.99
2019-05-06T08:24:28.849Z,8.02
2019-05-06T08:25:28.840Z,8.03
2019-05-06T08:26:28.827Z,8.11
2019-05-06T08:27:28.791Z,8.20
2019-05-06T08:28:38.581Z,8.27
2019-05-06T08:29:28.775Z,8.28
2019-05-06T08:30:28.770Z,8.27
2019-05-06T08:31:28.722Z,8.18
2019-05-06T08:32:28.731Z,8.24
2019-05-06T08:33:28.696Z,8.27
2019-05-06T08:34:28.676Z,8.38
2019-05-06T08:35:28.657Z,8.44
2019-05-06T08:36:28.641Z,8.56
2019-05-06T08:37:28.703Z,8.68
2019-05-06T08:38:28.607Z,8.64
2019-05-06T08:39:28.592Z,8.66
2019-05-06T08:40:28.571Z,8.69
2019-05-06T08:41:28.553Z,8.71
2019-05-06T08:42:28.567Z,8.60
2019-05-06T08:43:28.560Z,8.53
2019-05-06T08:44:28.504Z,8.42
2019-05-06T08:45:28.495Z,8.44
2019-05-06T08:46:28.478Z,8.41
2019-05-06T08:47:28.455Z,8.45
2019-05-06T08:48:28.466Z,8.54
2019-05-06T08:49:28.439Z,8.61
2019-05-06T08:50:28.401Z,8.64
2019-05-06T08:51:28.407Z,8.64
2019-05-06T08:52:28.370Z,8.68
2019-05-06T08:53:28.377Z,8.74
2019-05-06T08:54:28.362Z,8.81
2019-05-06T08:55:28.324Z,8.89
2019-05-06T08:56:28.297Z,8.90
2019-05-06T08:57:28.284Z,8.84
2019-05-06T08:58:28.435Z,8.86
2019-05-06T08:59:28.251Z,8.93
2019-05-06T09:00:28.235Z,8.97
2019-05-06T09:01:28.223Z,9.00
2019-05-06T09:02:28.207Z,9.00
2019-05-06T09:03:28.185Z,8.93
2019-05-06T09:04:28.176Z,8.86
2019-05-06T09:05:28.183Z,8.84
2019-05-06T09:06:33.053Z,8.77
2019-05-06T09:07:28.122Z,8.71
2019-05-06T09:08:28.099Z,8.71
2019-05-06T09:09:28.086Z,8.78
2019-05-06T09:10:28.086Z,8.89
2019-05-06T09:11:28.054Z,9.13
2019-05-06T09:12:28.028Z,9.34
2019-05-06T09:13:28.018Z,9.58
2019-05-06T09:14:27.997Z,9.66
2019-05-06T09:15:28.059Z,9.67
2019-05-06T09:16:27.962Z,9.69
2019-05-06T09:17:27.955Z,9.64
2019-05-06T09:18:27.932Z,9.54
2019-05-06T09:19:27.934Z,9.48
2019-05-06T09:20:27.906Z,9.54
2019-05-06T09:21:27.950Z,9.74
2019-05-06T09:22:27.870Z,10.07
2019-05-06T09:23:27.859Z,10.72
2019-05-06T09:24:27.892Z,11.41
2019-05-06T09:25:27.831Z,12.00
2019-05-06T09:26:27.805Z,11.96
2019-05-06T09:27:27.791Z,11.43
2019-05-06T09:28:27.774Z,11.52
2019-05-06T09:29:27.762Z,11.85
2019-05-06T09:30:27.800Z,12.21
2019-05-06T09:31:27.730Z,12.05
2019-05-06T09:32:27.734Z,12.10
2019-05-06T09:33:27.702Z,12.20
2019-05-06T09:34:27.688Z,12.58
2019-05-06T09:35:27.695Z,12.73
2019-05-06T09:36:39.977Z,12.15
2019-05-06T09:37:27.655Z,11.43
2019-05-06T09:38:27.633Z,10.98
2019-05-06T09:39:27.629Z,10.34
2019-05-06T09:40:27.618Z,10.25
2019-05-06T09:41:27.619Z,10.71
2019-05-06T09:42:27.620Z,11.33
2019-05-06T09:43:27.621Z,11.81
2019-05-06T09:44:27.587Z,11.55
2019-05-06T09:45:27.545Z,10.92
2019-05-06T09:46:27.552Z,10.41
2019-05-06T09:47:27.544Z,10.07
2019-05-06T09:48:27.511Z,9.85
2019-05-06T09:49:27.493Z,9.66
2019-05-06T09:50:27.480Z,9.81
2019-05-06T09:51:27.493Z,10.09
2019-05-06T09:52:27.448Z,10.34
2019-05-06T09:53:27.468Z,10.27
2019-05-06T09:54:27.427Z,10.02
2019-05-06T09:55:27.412Z,9.80
2019-05-06T09:56:27.394Z,9.63
2019-05-06T09:57:27.389Z,9.59
2019-05-06T09:58:27.374Z,9.88
2019-05-06T09:59:27.348Z,10.24
2019-05-06T10:00:27.372Z,10.68
2019-05-06T10:01:27.324Z,11.05
2019-05-06T10:02:27.308Z,11.33
2019-05-06T10:03:27.351Z,11.37
2019-05-06T10:04:27.282Z,11.41
2019-05-06T10:05:27.341Z,11.67
2019-05-06T10:06:27.254Z,11.89
2019-05-06T10:07:27.258Z,12.03
2019-05-06T10:08:27.241Z,12.07
2019-05-06T10:09:27.264Z,12.29
2019-05-06T10:10:27.209Z,12.33
2019-05-06T10:11:27.200Z,12.11
2019-05-06T10:12:27.211Z,12.11
2019-05-06T10:13:27.175Z,12.05
2019-05-06T10:14:27.198Z,11.88
2019-05-06T10:15:27.159Z,11.58
2019-05-06T10:16:27.144Z,11.40
2019-05-06T10:17:27.158Z,11.18
2019-05-06T10:18:27.122Z,11.13
2019-05-06T10:19:27.157Z,10.98
2019-05-06T10:20:27.118Z,10.87
2019-05-06T10:21:27.093Z,10.89
2019-05-06T10:22:27.077Z,10.77
2019-05-06T10:23:27.151Z,10.76
2019-05-06T10:24:27.135Z,10.64
2019-05-06T10:25:27.041Z,10.48
2019-05-06T10:26:27.183Z,10.43
2019-05-06T10:27:26.998Z,10.49
2019-05-06T10:28:26.994Z,10.69
2019-05-06T10:29:26.991Z,11.16
2019-05-06T10:30:26.967Z,11.67
2019-05-06T10:31:26.952Z,12.03
2019-05-06T10:32:26.941Z,11.89
2019-05-06T10:33:26.924Z,11.81
2019-05-06T10:34:26.923Z,11.77
2019-05-06T10:35:29.647Z,11.97
2019-05-06T10:36:26.879Z,12.18
2019-05-06T10:37:26.875Z,12.17
2019-05-06T10:38:26.884Z,12.11
2019-05-06T10:39:26.853Z,11.95
2019-05-06T10:40:26.826Z,12.05
2019-05-06T10:41:26.827Z,12.23
2019-05-06T10:42:26.799Z,12.48
2019-05-06T10:43:26.794Z,12.50
2019-05-06T10:44:26.801Z,12.07
2019-05-06T10:45:26.759Z,11.88
2019-05-06T10:46:26.749Z,11.63
2019-05-06T10:47:26.737Z,11.60
2019-05-06T10:48:26.748Z,11.68
2019-05-06T10:49:26.757Z,11.62
2019-05-06T10:50:26.695Z,11.59
2019-05-06T10:51:26.687Z,11.52
2019-05-06T10:52:26.676Z,11.44
2019-05-06T10:53:26.660Z,11.27
2019-05-06T10:54:26.662Z,11.20
2019-05-06T10:55:26.643Z,11.18
2019-05-06T10:56:26.621Z,11.08
2019-05-06T10:57:26.603Z,11.04
2019-05-06T10:58:26.589Z,10.98
2019-05-06T10:59:26.593Z,11.00
2019-05-06T11:00:26.559Z,10.87
2019-05-06T11:01:26.531Z,10.82
2019-05-06T11:02:26.533Z,10.92
2019-05-06T11:03:27.745Z,11.05
2019-05-06T11:04:26.499Z,11.08
2019-05-06T11:05:26.483Z,11.02
2019-05-06T11:06:26.465Z,11.07
2019-05-06T11:07:31.845Z,11.15
2019-05-06T11:08:26.443Z,11.18
2019-05-06T11:09:26.418Z,11.16
2019-05-06T11:10:30.028Z,11.22
2019-05-06T11:11:35.075Z,11.22
2019-05-06T11:12:26.376Z,11.20
2019-05-06T11:13:26.365Z,11.15
2019-05-06T11:14:26.344Z,11.22
2019-05-06T11:15:26.328Z,11.27
2019-05-06T11:16:26.364Z,11.27
2019-05-06T11:17:26.299Z,11.27
2019-05-06T11:18:26.289Z,11.30
2019-05-06T11:19:26.274Z,11.49
2019-05-06T11:20:26.270Z,11.67
2019-05-06T11:21:26.271Z,11.56
2019-05-06T11:22:26.232Z,11.60
2019-05-06T11:23:26.213Z,11.68
2019-05-06T11:24:26.193Z,11.89
2019-05-06T11:25:26.181Z,11.86
2019-05-06T11:26:26.223Z,11.80
2019-05-06T11:27:32.091Z,11.65
2019-05-06T11:28:26.145Z,11.68
2019-05-06T11:29:26.134Z,11.76
2019-05-06T11:30:26.117Z,11.73
2019-05-06T11:31:26.089Z,11.63
2019-05-06T11:32:26.112Z,11.52
2019-05-06T11:33:26.070Z,11.37
2019-05-06T11:34:26.055Z,11.15
2019-05-06T11:35:26.036Z,11.00
2019-05-06T11:36:26.023Z,10.90
2019-05-06T11:37:26.023Z,10.84
2019-05-06T11:38:25.987Z,10.86
2019-05-06T11:39:25.971Z,10.87
2019-05-06T11:40:25.968Z,10.83
2019-05-06T11:41:25.974Z,10.77
2019-05-06T11:42:32.266Z,10.69
2019-05-06T11:43:25.917Z,10.79
2019-05-06T11:44:25.902Z,11.04
2019-05-06T11:45:25.887Z,11.20
2019-05-06T11:46:25.891Z,11.33
2019-05-06T11:47:25.879Z,11.37
2019-05-06T11:48:25.841Z,11.38
2019-05-06T11:49:26.030Z,11.44
2019-05-06T11:50:25.805Z,11.56
2019-05-06T11:51:25.802Z,11.95
2019-05-06T11:52:25.811Z,12.57
2019-05-06T11:53:25.761Z,13.30
2019-05-06T11:54:25.746Z,13.83
2019-05-06T11:55:30.859Z,13.93
2019-05-06T11:56:25.719Z,13.62
2019-05-06T11:57:25.733Z,13.61
2019-05-06T11:58:25.751Z,13.54
2019-05-06T11:59:26.390Z,13.45
2019-05-06T12:00:25.670Z,13.33
2019-05-06T12:01:25.652Z,13.16
2019-05-06T12:02:25.794Z,12.70
2019-05-06T12:03:25.639Z,12.54
2019-05-06T12:04:25.609Z,12.43
2019-05-06T12:05:25.646Z,12.29
2019-05-06T12:06:25.584Z,12.29
2019-05-06T12:07:25.569Z,12.35
2019-05-06T12:08:25.582Z,12.43
2019-05-06T12:09:25.549Z,12.51
2019-05-06T12:10:25.530Z,12.70
2019-05-06T12:11:25.635Z,12.93
2019-05-06T12:12:25.505Z,13.23
2019-05-06T12:13:25.529Z,13.26
2019-05-06T12:14:25.484Z,13.20
2019-05-06T12:15:25.468Z,13.06
2019-05-06T12:16:26.373Z,13.11
2019-05-06T12:17:25.435Z,13.09
2019-05-06T12:18:25.430Z,13.01
2019-05-06T12:19:25.443Z,12.73
2019-05-06T12:20:25.398Z,12.30
2019-05-06T12:21:25.390Z,12.28
2019-05-06T12:22:25.372Z,12.18
2019-05-06T12:23:25.364Z,12.10
2019-05-06T12:24:25.382Z,12.05
2019-05-06T12:25:25.366Z,11.96
2019-05-06T12:26:25.352Z,11.77
2019-05-06T12:27:25.315Z,11.70
2019-05-06T12:28:25.285Z,11.58
2019-05-06T12:29:25.304Z,11.55
2019-05-06T12:30:25.400Z,11.58
2019-05-06T12:31:29.835Z,11.62
2019-05-06T12:32:25.234Z,11.63
2019-05-06T12:33:25.219Z,11.60
2019-05-06T12:34:25.202Z,11.65
2019-05-06T12:35:25.215Z,11.67
2019-05-06T12:36:25.181Z,11.63
2019-05-06T12:37:27.014Z,11.70
2019-05-06T12:38:30.174Z,11.70
2019-05-06T12:39:25.137Z,11.74
2019-05-06T12:40:25.146Z,11.76
2019-05-06T12:41:25.102Z,11.78
2019-05-06T12:42:25.094Z,11.80
2019-05-06T12:43:25.073Z,11.80
2019-05-06T12:44:25.988Z,11.77
2019-05-06T12:45:25.183Z,11.81
2019-05-06T12:46:25.040Z,11.81
2019-05-06T12:47:25.043Z,11.86
2019-05-06T12:48:25.302Z,12.00
2019-05-06T12:49:24.992Z,12.14
2019-05-06T12:50:24.969Z,12.29
2019-05-06T12:51:24.987Z,12.39
2019-05-06T12:52:25.438Z,12.43
2019-05-06T12:53:24.937Z,12.35
2019-05-06T12:54:24.920Z,12.29
2019-05-06T12:55:25.445Z,12.21
2019-05-06T12:56:24.882Z,12.23
2019-05-06T12:57:24.922Z,12.29
2019-05-06T12:58:24.920Z,12.45
2019-05-06T12:59:24.911Z,12.48
2019-05-06T13:00:24.835Z,12.39
2019-05-06T13:01:25.758Z,12.23
2019-05-06T13:02:24.829Z,12.03
2019-05-06T13:03:24.821Z,11.81
2019-05-06T13:04:44.439Z,11.70
2019-05-06T13:05:24.762Z,11.63
2019-05-06T13:06:26.601Z,11.65
2019-05-06T13:07:25.019Z,11.65
2019-05-06T13:08:32.447Z,11.63
2019-05-06T13:09:24.744Z,11.60
2019-05-06T13:10:24.691Z,11.63
2019-05-06T13:11:24.702Z,11.70